createdAt,value
2017-07-02T00:00:23.776Z,15.73
2017-07-02T00:00:52.281Z,15.75
2017-07-02T00:01:20.880Z,15.69
2017-07-02T00:01:49.486Z,15.73
2017-07-02T00:02:18.085Z,15.69
2017-07-02T00:02:46.491Z,15.73
2017-07-02T00:03:15.108Z,15.69
2017-07-02T00:03:43.741Z,15.65
2017-07-02T00:04:12.335Z,15.72
2017-07-02T00:04:40.928Z,15.63
2017-07-02T00:05:09.353Z,15.73
2017-07-02T00:05:37.950Z,15.72
2017-07-02T00:06:06.562Z,15.76
2017-07-02T00:06:35.204Z,15.69
2017-07-02T00:07:03.821Z,15.67
2017-07-02T00:07:32.545Z,15.72
2017-07-02T00:08:01.165Z,15.72
2017-07-02T00:08:29.506Z,15.7
2017-07-02T00:08:58.033Z,15.62
2017-07-02T00:09:26.656Z,15.72
2017-07-02T00:09:55.263Z,15.7
2017-07-02T00:10:23.863Z,15.7
2017-07-02T00:10:52.458Z,15.73
2017-07-02T00:11:20.996Z,15.62
2017-07-02T00:11:49.614Z,15.65
2017-07-02T00:12:18.215Z,15.54
2017-07-02T00:12:46.837Z,15.62
2017-07-02T00:13:15.471Z,15.62
2017-07-02T00:13:44.002Z,15.54
2017-07-02T00:14:12.607Z,15.55
2017-07-02T00:14:41.218Z,15.67
2017-07-02T00:15:09.809Z,15.54
2017-07-02T00:15:38.405Z,15.54
2017-07-02T00:16:07.047Z,15.54
2017-07-02T00:16:35.670Z,15.52
2017-07-02T00:17:04.266Z,15.55
2017-07-02T00:17:32.952Z,15.52
2017-07-02T00:18:01.594Z,15.55
2017-07-02T00:18:30.236Z,15.66
2017-07-02T00:18:58.773Z,15.55
2017-07-02T00:19:27.307Z,15.52
2017-07-02T00:19:55.946Z,15.63
2017-07-02T00:20:24.566Z,15.52
2017-07-02T00:20:53.175Z,15.52
2017-07-02T00:21:21.778Z,15.66
2017-07-02T00:21:50.413Z,15.65
2017-07-02T00:22:18.939Z,15.69
2017-07-02T00:22:47.538Z,15.51
2017-07-02T00:23:16.289Z,15.54
2017-07-02T00:23:44.906Z,15.54
2017-07-02T00:24:13.399Z,15.54
2017-07-02T00:24:41.989Z,15.57
2017-07-02T00:25:10.505Z,15.59
2017-07-02T00:25:39.126Z,15.54
2017-07-02T00:26:07.734Z,15.59
2017-07-02T00:26:36.359Z,15.6
2017-07-02T00:27:04.960Z,15.54
2017-07-02T00:27:33.499Z,15.51
2017-07-02T00:28:02.090Z,15.51
2017-07-02T00:28:30.581Z,15.54
2017-07-02T00:28:59.163Z,15.57
2017-07-02T00:29:27.664Z,15.54
2017-07-02T00:29:56.280Z,15.57
2017-07-02T00:30:24.874Z,15.5
2017-07-02T00:30:53.415Z,15.59
2017-07-02T00:31:22.037Z,15.54
2017-07-02T00:31:50.646Z,15.57
2017-07-02T00:32:19.245Z,15.59
2017-07-02T00:32:47.758Z,15.54
2017-07-02T00:33:16.292Z,15.5
2017-07-02T00:33:44.717Z,15.51
2017-07-02T00:34:13.332Z,15.54
2017-07-02T00:34:41.958Z,15.51
2017-07-02T00:35:10.575Z,15.54
2017-07-02T00:35:39.185Z,15.47
2017-07-02T00:36:07.706Z,15.45
2017-07-02T00:36:36.318Z,15.48
2017-07-02T00:37:04.914Z,15.48
2017-07-02T00:37:33.355Z,15.44
2017-07-02T00:38:01.935Z,15.45
2017-07-02T00:38:30.554Z,15.41
2017-07-02T00:38:59.181Z,15.45
2017-07-02T00:39:27.723Z,15.48
2017-07-02T00:39:56.215Z,15.47
2017-07-02T00:40:24.840Z,15.5
2017-07-02T00:40:53.452Z,15.41
2017-07-02T00:41:22.073Z,15.36
2017-07-02T00:41:50.661Z,15.36
2017-07-02T00:42:19.270Z,15.36
2017-07-02T00:42:47.862Z,15.3
2017-07-02T00:43:16.461Z,15.27
2017-07-02T00:43:44.998Z,15.18
2017-07-02T00:44:13.603Z,15.17
2017-07-02T00:44:42.200Z,15.15
2017-07-02T00:45:10.797Z,15.19
2017-07-02T00:45:39.412Z,15.17
2017-07-02T00:46:08.049Z,15.22
2017-07-02T00:46:36.560Z,15.11
2017-07-02T00:47:05.166Z,15.11
2017-07-02T00:47:33.792Z,15.1
2017-07-02T00:48:02.307Z,15.12
2017-07-02T00:48:30.755Z,15.05
2017-07-02T00:48:59.223Z,15.08
2017-07-02T00:49:27.854Z,15.05
2017-07-02T00:49:56.459Z,15.11
2017-07-02T00:50:24.973Z,15.15
2017-07-02T00:50:53.595Z,15.12
2017-07-02T00:51:22.220Z,15.22
2017-07-02T00:51:50.845Z,15.14
2017-07-02T00:52:19.388Z,15.11
2017-07-02T00:52:48.002Z,15.15
2017-07-02T00:53:16.598Z,15.11
2017-07-02T00:53:45.197Z,15.19
2017-07-02T00:54:13.825Z,15.17
2017-07-02T00:54:42.435Z,15.19
2017-07-02T00:55:11.055Z,15.17
2017-07-02T00:55:39.575Z,15.17
2017-07-02T00:56:08.179Z,15.25
2017-07-02T00:56:36.695Z,15.22
2017-07-02T00:57:05.187Z,15.15
2017-07-02T00:57:33.775Z,15.15
2017-07-02T00:58:02.309Z,15.18
2017-07-02T00:58:30.931Z,15.18
2017-07-02T00:58:59.544Z,15.18
2017-07-02T00:59:28.043Z,15.19
2017-07-02T00:59:56.650Z,15.11
2017-07-02T01:00:25.288Z,15.15
2017-07-02T01:00:53.890Z,15.22
2017-07-02T01:01:22.510Z,15.17
2017-07-02T01:01:51.102Z,15.17
2017-07-02T01:02:19.731Z,15.17
2017-07-02T01:02:48.440Z,15.23
2017-07-02T01:03:17.053Z,15.23
2017-07-02T01:03:45.658Z,15.23
2017-07-02T01:04:14.175Z,15.17
2017-07-02T01:04:42.794Z,15.15
2017-07-02T01:05:11.290Z,15.11
2017-07-02T01:05:39.917Z,15.15
2017-07-02T01:06:08.445Z,15.14
2017-07-02T01:06:37.064Z,15.07
2017-07-02T01:07:05.684Z,15.04
2017-07-02T01:07:34.214Z,15.08
2017-07-02T01:08:02.735Z,15.04
2017-07-02T01:08:31.219Z,15.08
2017-07-02T01:08:59.820Z,15.17
2017-07-02T01:09:28.336Z,15.11
2017-07-02T01:09:56.931Z,14.97
2017-07-02T01:10:25.332Z,15.11
2017-07-02T01:10:53.983Z,15.07
2017-07-02T01:11:22.528Z,14.93
2017-07-02T01:11:51.152Z,14.97
2017-07-02T01:12:19.756Z,14.97
2017-07-02T01:12:48.397Z,14.97
2017-07-02T01:13:17.015Z,14.94
2017-07-02T01:13:45.632Z,14.93
2017-07-02T01:14:14.251Z,15.05
2017-07-02T01:14:42.861Z,15
2017-07-02T01:15:11.481Z,14.99
2017-07-02T01:15:40.083Z,14.97
2017-07-02T01:16:08.665Z,15.02
2017-07-02T01:16:37.270Z,14.92
2017-07-02T01:17:05.888Z,15
2017-07-02T01:17:34.518Z,14.96
2017-07-02T01:18:03.124Z,14.89
2017-07-02T01:18:31.723Z,14.92
2017-07-02T01:19:00.256Z,14.97
2017-07-02T01:19:28.759Z,14.93
2017-07-02T01:19:57.374Z,14.94
2017-07-02T01:20:25.944Z,14.99
2017-07-02T01:20:54.649Z,14.96
2017-07-02T01:21:23.242Z,14.96
2017-07-02T01:21:51.760Z,14.99
2017-07-02T01:22:20.330Z,15.04
2017-07-02T01:22:48.923Z,14.99
2017-07-02T01:23:17.538Z,15
2017-07-02T01:23:46.064Z,15.07
2017-07-02T01:24:14.683Z,15.07
2017-07-02T01:24:43.280Z,15.04
2017-07-02T01:25:11.924Z,15.05
2017-07-02T01:25:40.533Z,15.11
2017-07-02T01:26:09.120Z,15.12
2017-07-02T01:26:37.714Z,15.07
2017-07-02T01:27:06.278Z,15.12
2017-07-02T01:27:34.883Z,15.12
2017-07-02T01:28:03.475Z,15.08
2017-07-02T01:28:32.111Z,15.1
2017-07-02T01:29:00.725Z,15.08
2017-07-02T01:29:29.318Z,15.17
2017-07-02T01:29:57.855Z,15.11
2017-07-02T01:30:26.440Z,15.08
2017-07-02T01:30:55.049Z,15.08
2017-07-02T01:31:23.678Z,15.08
2017-07-02T01:31:52.187Z,15.05
2017-07-02T01:32:20.707Z,15.11
2017-07-02T01:32:49.301Z,15.07
2017-07-02T01:33:17.912Z,15.05
2017-07-02T01:33:46.523Z,15.18
2017-07-02T01:34:15.118Z,15.08
2017-07-02T01:34:43.632Z,15.14
2017-07-02T01:35:12.272Z,15.12
2017-07-02T01:35:40.774Z,15.11
2017-07-02T01:36:09.377Z,15.07
2017-07-02T01:36:37.903Z,15.11
2017-07-02T01:37:06.524Z,15.12
2017-07-02T01:37:35.132Z,15.08
2017-07-02T01:38:03.722Z,15.14
2017-07-02T01:38:32.260Z,15.17
2017-07-02T01:39:00.880Z,15.12
2017-07-02T01:39:29.492Z,15.22
2017-07-02T01:39:58.031Z,15.25
2017-07-02T01:40:26.619Z,15.26
2017-07-02T01:40:55.247Z,15.22
2017-07-02T01:41:23.833Z,15.25
2017-07-02T01:41:52.426Z,15.3
2017-07-02T01:42:20.924Z,15.27
2017-07-02T01:42:49.461Z,15.33
2017-07-02T01:43:18.056Z,15.26
2017-07-02T01:43:46.672Z,15.29
2017-07-02T01:44:15.273Z,15.29
2017-07-02T01:44:43.860Z,15.32
2017-07-02T01:45:12.472Z,15.41
2017-07-02T01:45:41.072Z,15.36
2017-07-02T01:46:09.591Z,15.39
2017-07-02T01:46:38.236Z,15.33
2017-07-02T01:47:06.815Z,15.37
2017-07-02T01:47:35.443Z,15.41
2017-07-02T01:48:04.079Z,15.43
2017-07-02T01:48:32.670Z,15.44
2017-07-02T01:49:01.272Z,15.45
2017-07-02T01:49:29.897Z,15.51
2017-07-02T01:49:58.511Z,15.48
2017-07-02T01:50:27.121Z,15.48
2017-07-02T01:50:55.733Z,15.51
2017-07-02T01:51:24.342Z,15.51
2017-07-02T01:51:52.985Z,15.44
2017-07-02T01:52:21.576Z,15.37
2017-07-02T01:52:50.173Z,15.39
2017-07-02T01:53:18.761Z,15.44
2017-07-02T01:53:47.294Z,15.37
2017-07-02T01:54:15.837Z,15.29
2017-07-02T01:54:44.421Z,15.32
2017-07-02T01:55:13.014Z,15.3
2017-07-02T01:55:41.637Z,15.32
2017-07-02T01:56:10.244Z,15.27
2017-07-02T01:56:38.846Z,15.3
2017-07-02T01:57:07.460Z,15.14
2017-07-02T01:57:36.069Z,15.18
2017-07-02T01:58:04.673Z,15.22
2017-07-02T01:58:33.287Z,15.19
2017-07-02T01:59:01.885Z,15.22
2017-07-02T01:59:30.408Z,15.23
2017-07-02T01:59:59.035Z,15.22
2017-07-02T02:00:27.568Z,15.18
2017-07-02T02:00:56.172Z,15.19
2017-07-02T02:01:24.787Z,15.19
2017-07-02T02:01:53.385Z,15.32
2017-07-02T02:02:22.003Z,15.19
2017-07-02T02:02:50.503Z,15.22
2017-07-02T02:03:19.027Z,15.23
2017-07-02T02:03:47.552Z,15.22
2017-07-02T02:04:16.061Z,15.18
2017-07-02T02:04:44.677Z,15.14
2017-07-02T02:05:13.293Z,15.18
2017-07-02T02:05:41.910Z,15.14
2017-07-02T02:06:10.498Z,15.07
2017-07-02T02:06:39.016Z,15.11
2017-07-02T02:07:07.621Z,15.04
2017-07-02T02:07:36.243Z,15.04
2017-07-02T02:08:04.844Z,15.05
2017-07-02T02:08:33.457Z,15.14
2017-07-02T02:09:02.063Z,15.1
2017-07-02T02:09:30.683Z,15.02
2017-07-02T02:09:59.297Z,15.08
2017-07-02T02:10:27.845Z,15.12
2017-07-02T02:10:56.458Z,15.15
2017-07-02T02:11:25.076Z,15.07
2017-07-02T02:11:53.687Z,15.08
2017-07-02T02:12:22.286Z,15.15
2017-07-02T02:12:50.904Z,15.12
2017-07-02T02:13:19.500Z,15.14
2017-07-02T02:13:48.107Z,15.18
2017-07-02T02:14:16.702Z,15.19
2017-07-02T02:14:45.329Z,15.17
2017-07-02T02:15:13.952Z,15.19
2017-07-02T02:15:42.564Z,15.19
2017-07-02T02:16:11.183Z,15.15
2017-07-02T02:16:39.780Z,15.17
2017-07-02T02:17:08.329Z,15.18
2017-07-02T02:17:36.826Z,15.23
2017-07-02T02:18:05.410Z,15.19
2017-07-02T02:18:33.933Z,15.18
2017-07-02T02:19:02.445Z,15.22
2017-07-02T02:19:31.072Z,15.19
2017-07-02T02:19:59.695Z,15.18
2017-07-02T02:20:28.200Z,15.22
2017-07-02T02:20:56.811Z,15.19
2017-07-02T02:21:25.425Z,15.18
2017-07-02T02:21:54.030Z,15.18
2017-07-02T02:22:22.656Z,15.23
2017-07-02T02:22:51.285Z,15.15
2017-07-02T02:23:19.790Z,15.19
2017-07-02T02:23:48.373Z,15.23
2017-07-02T02:24:16.970Z,15.17
2017-07-02T02:24:45.479Z,15.19
2017-07-02T02:25:14.088Z,15.18
2017-07-02T02:25:42.699Z,15.18
2017-07-02T02:26:11.315Z,15.22
2017-07-02T02:26:39.740Z,15.17
2017-07-02T02:27:08.246Z,15.22
2017-07-02T02:27:36.856Z,15.19
2017-07-02T02:28:05.488Z,15.12
2017-07-02T02:28:33.903Z,15.18
2017-07-02T02:29:02.488Z,15.14
2017-07-02T02:29:31.079Z,15.25
2017-07-02T02:29:59.568Z,15.19
2017-07-02T02:30:28.097Z,15.18
2017-07-02T02:30:56.712Z,15.25
2017-07-02T02:31:25.333Z,15.18
2017-07-02T02:31:53.926Z,15.25
2017-07-02T02:32:22.543Z,15.17
2017-07-02T02:32:51.054Z,15.17
2017-07-02T02:33:19.684Z,15.3
2017-07-02T02:33:48.307Z,15.32
2017-07-02T02:34:16.937Z,15.33
2017-07-02T02:34:45.401Z,15.27
2017-07-02T02:35:13.986Z,15.27
2017-07-02T02:35:42.581Z,15.33
2017-07-02T02:36:11.204Z,15.29
2017-07-02T02:36:39.634Z,15.3
2017-07-02T02:37:08.230Z,15.36
2017-07-02T02:37:36.844Z,15.33
2017-07-02T02:38:05.346Z,15.36
2017-07-02T02:38:33.852Z,15.3
2017-07-02T02:39:02.469Z,15.3
2017-07-02T02:39:31.092Z,15.33
2017-07-02T02:39:59.678Z,15.23
2017-07-02T02:40:28.273Z,15.19
2017-07-02T02:40:56.785Z,15.17
2017-07-02T02:41:25.401Z,15.22
2017-07-02T02:41:54.013Z,15.17
2017-07-02T02:42:22.635Z,15.11
2017-07-02T02:42:51.253Z,15.23
2017-07-02T02:43:19.762Z,15.11
2017-07-02T02:43:48.359Z,15.14
2017-07-02T02:44:16.864Z,15.11
2017-07-02T02:44:45.460Z,15.15
2017-07-02T02:45:13.975Z,15.17
2017-07-02T02:45:42.515Z,15.15
2017-07-02T02:46:11.124Z,15.14
2017-07-02T02:46:39.714Z,15.14
2017-07-02T02:47:08.314Z,15.12
2017-07-02T02:47:36.914Z,15.12
2017-07-02T02:48:05.549Z,15.11
2017-07-02T02:48:34.081Z,15.12
2017-07-02T02:49:02.689Z,15.08
2017-07-02T02:49:31.309Z,15.08
2017-07-02T02:49:59.930Z,15.12
2017-07-02T02:50:28.255Z,15.08
2017-07-02T02:50:56.861Z,15.08
2017-07-02T02:51:25.468Z,15.12
2017-07-02T02:51:54.079Z,15.04
2017-07-02T02:52:22.699Z,15.04
2017-07-02T02:52:51.229Z,14.99
2017-07-02T02:53:19.814Z,15.07
2017-07-02T02:53:48.423Z,14.99
2017-07-02T02:54:17.051Z,14.99
2017-07-02T02:54:45.692Z,14.99
2017-07-02T02:55:14.321Z,14.99
2017-07-02T02:55:42.915Z,15.08
2017-07-02T02:56:11.513Z,15.05
2017-07-02T02:56:40.233Z,15.08
2017-07-02T02:57:08.861Z,15.07
2017-07-02T02:57:37.631Z,15.05
2017-07-02T02:58:06.233Z,15.1
2017-07-02T02:58:34.937Z,15.05
2017-07-02T02:59:03.593Z,15.04
2017-07-02T02:59:32.166Z,15.1
2017-07-02T03:00:00.670Z,15.11
2017-07-02T03:00:29.284Z,15.07
2017-07-02T03:00:57.893Z,15.02
2017-07-02T03:01:26.430Z,14.96
2017-07-02T03:01:55.043Z,15.08
2017-07-02T03:02:23.629Z,15
2017-07-02T03:02:52.244Z,14.9
2017-07-02T03:03:20.891Z,14.94
2017-07-02T03:03:49.383Z,14.87
2017-07-02T03:04:17.998Z,14.9
2017-07-02T03:04:46.599Z,14.9
2017-07-02T03:05:15.212Z,14.81
2017-07-02T03:05:44.170Z,14.85
2017-07-02T03:06:12.780Z,14.82
2017-07-02T03:06:41.314Z,14.81
2017-07-02T03:07:09.922Z,14.81
2017-07-02T03:07:38.513Z,14.78
2017-07-02T03:08:07.119Z,14.82
2017-07-02T03:08:35.737Z,14.77
2017-07-02T03:09:04.366Z,14.73
2017-07-02T03:09:32.914Z,14.71
2017-07-02T03:10:01.475Z,14.82
2017-07-02T03:10:30.056Z,14.73
2017-07-02T03:10:58.647Z,14.85
2017-07-02T03:11:27.236Z,14.67
2017-07-02T03:11:55.866Z,14.85
2017-07-02T03:12:24.483Z,14.77
2017-07-02T03:12:53.119Z,14.74
2017-07-02T03:13:21.711Z,14.85
2017-07-02T03:13:50.250Z,14.82
2017-07-02T03:14:18.852Z,14.82
2017-07-02T03:14:47.366Z,14.79
2017-07-02T03:15:15.970Z,14.79
2017-07-02T03:15:44.515Z,14.79
2017-07-02T03:16:13.130Z,14.86
2017-07-02T03:16:41.762Z,14.87
2017-07-02T03:17:10.368Z,14.78
2017-07-02T03:17:38.992Z,14.81
2017-07-02T03:18:07.495Z,14.71
2017-07-02T03:18:35.997Z,14.81
2017-07-02T03:19:04.611Z,14.67
2017-07-02T03:19:33.222Z,14.78
2017-07-02T03:20:01.720Z,14.74
2017-07-02T03:20:30.290Z,14.66
2017-07-02T03:20:58.896Z,14.7
2017-07-02T03:21:27.485Z,14.66
2017-07-02T03:21:56.100Z,14.71
2017-07-02T03:22:24.700Z,14.73
2017-07-02T03:22:53.320Z,14.68
2017-07-02T03:23:21.961Z,14.71
2017-07-02T03:23:50.491Z,14.73
2017-07-02T03:24:19.093Z,14.68
2017-07-02T03:24:47.695Z,14.67
2017-07-02T03:25:16.273Z,14.67
2017-07-02T03:25:44.852Z,14.68
2017-07-02T03:26:13.466Z,14.68
2017-07-02T03:26:42.064Z,14.77
2017-07-02T03:27:10.677Z,14.7
2017-07-02T03:27:39.306Z,14.63
2017-07-02T03:28:07.907Z,14.67
2017-07-02T03:28:36.434Z,14.67
2017-07-02T03:29:05.041Z,14.63
2017-07-02T03:29:33.672Z,14.62
2017-07-02T03:30:02.282Z,14.68
2017-07-02T03:30:30.910Z,14.59
2017-07-02T03:30:59.522Z,14.59
2017-07-02T03:31:28.122Z,14.67
2017-07-02T03:31:56.634Z,14.58
2017-07-02T03:32:25.241Z,14.58
2017-07-02T03:32:53.869Z,14.58
2017-07-02T03:33:22.390Z,14.58
2017-07-02T03:33:50.990Z,14.66
2017-07-02T03:34:19.603Z,14.68
2017-07-02T03:34:48.189Z,14.71
2017-07-02T03:35:16.795Z,14.7
2017-07-02T03:35:45.368Z,14.73
2017-07-02T03:36:13.956Z,14.79
2017-07-02T03:36:42.558Z,14.73
2017-07-02T03:37:11.170Z,14.77
2017-07-02T03:37:39.646Z,14.81
2017-07-02T03:38:08.267Z,14.77
2017-07-02T03:38:36.864Z,14.82
2017-07-02T03:39:05.485Z,14.82
2017-07-02T03:39:34.022Z,14.9
2017-07-02T03:40:02.639Z,14.93
2017-07-02T03:40:31.215Z,14.87
2017-07-02T03:40:59.842Z,14.94
2017-07-02T03:41:28.471Z,14.9
2017-07-02T03:41:57.093Z,14.89
2017-07-02T03:42:25.684Z,14.89
2017-07-02T03:42:54.326Z,14.93
2017-07-02T03:43:22.965Z,14.85
2017-07-02T03:43:51.496Z,14.9
2017-07-02T03:44:20.116Z,14.92
2017-07-02T03:44:48.641Z,14.89
2017-07-02T03:45:17.158Z,14.9
2017-07-02T03:45:45.814Z,14.92
2017-07-02T03:46:14.549Z,14.92
2017-07-02T03:46:43.153Z,14.92
2017-07-02T03:47:11.777Z,14.9
2017-07-02T03:47:40.400Z,15.02
2017-07-02T03:48:09.006Z,15.02
2017-07-02T03:48:37.639Z,14.97
2017-07-02T03:49:06.251Z,14.99
2017-07-02T03:49:34.771Z,14.93
2017-07-02T03:50:03.390Z,14.99
2017-07-02T03:50:32.009Z,15.05
2017-07-02T03:51:00.626Z,15
2017-07-02T03:51:29.122Z,15.07
2017-07-02T03:51:57.738Z,15.1
2017-07-02T03:52:26.246Z,15.07
2017-07-02T03:52:54.856Z,15.07
2017-07-02T03:53:23.461Z,15.04
2017-07-02T03:53:52.090Z,15.15
2017-07-02T03:54:20.712Z,15.14
2017-07-02T03:54:49.349Z,15.12
2017-07-02T03:55:17.964Z,15.14
2017-07-02T03:55:46.550Z,15.12
2017-07-02T03:56:15.157Z,15.17
2017-07-02T03:56:43.760Z,15.19
2017-07-02T03:57:12.375Z,15.19
2017-07-02T03:57:40.918Z,15.22
2017-07-02T03:58:09.420Z,15.18
2017-07-02T03:58:38.015Z,15.14
2017-07-02T03:59:06.636Z,15.12
2017-07-02T03:59:35.251Z,15.15
2017-07-02T04:00:03.895Z,15.22
2017-07-02T04:00:32.485Z,15.08
2017-07-02T04:01:15.524Z,15.08
2017-07-02T04:01:44.129Z,15.07
2017-07-02T04:02:12.666Z,15.07
2017-07-02T04:02:41.257Z,14.94
2017-07-02T04:03:09.765Z,15.07
2017-07-02T04:03:38.264Z,14.97
2017-07-02T04:04:06.880Z,14.93
2017-07-02T04:04:35.467Z,14.9
2017-07-02T04:05:04.065Z,15.02
2017-07-02T04:05:32.665Z,14.92
2017-07-02T04:06:01.252Z,15
2017-07-02T04:06:29.876Z,14.93
2017-07-02T04:06:58.506Z,14.94
2017-07-02T04:07:27.012Z,14.94
2017-07-02T04:07:55.638Z,14.93
2017-07-02T04:08:24.265Z,14.89
2017-07-02T04:08:52.857Z,14.93
2017-07-02T04:09:21.491Z,14.97
2017-07-02T04:09:50.079Z,14.93
2017-07-02T04:10:18.694Z,14.87
2017-07-02T04:10:47.290Z,14.89
2017-07-02T04:11:15.915Z,14.89
2017-07-02T04:11:44.551Z,14.87
2017-07-02T04:12:13.162Z,14.89
2017-07-02T04:12:41.783Z,14.86
2017-07-02T04:13:10.390Z,14.92
2017-07-02T04:13:38.889Z,14.92
2017-07-02T04:14:07.520Z,14.9
2017-07-02T04:14:36.158Z,14.9
2017-07-02T04:15:04.738Z,14.92
2017-07-02T04:15:33.343Z,14.96
2017-07-02T04:16:01.934Z,14.99
2017-07-02T04:16:30.532Z,14.97
2017-07-02T04:16:59.043Z,14.94
2017-07-02T04:17:27.668Z,15.02
2017-07-02T04:17:56.251Z,14.96
2017-07-02T04:18:24.862Z,14.97
2017-07-02T04:18:53.455Z,14.96
2017-07-02T04:19:22.088Z,14.97
2017-07-02T04:19:50.692Z,15.02
2017-07-02T04:20:19.289Z,14.93
2017-07-02T04:20:47.864Z,14.99
2017-07-02T04:21:16.461Z,14.93
2017-07-02T04:21:45.080Z,14.96
2017-07-02T04:22:13.689Z,14.97
2017-07-02T04:22:42.293Z,14.89
2017-07-02T04:23:10.894Z,14.97
2017-07-02T04:23:39.487Z,15.05
2017-07-02T04:24:08.119Z,14.93
2017-07-02T04:24:36.728Z,14.94
2017-07-02T04:25:05.311Z,14.97
2017-07-02T04:25:33.917Z,14.9
2017-07-02T04:26:02.511Z,14.9
2017-07-02T04:26:31.042Z,14.92
2017-07-02T04:26:59.657Z,14.9
2017-07-02T04:27:28.262Z,14.92
2017-07-02T04:27:56.897Z,14.93
2017-07-02T04:28:25.503Z,14.92
2017-07-02T04:28:54.034Z,14.9
2017-07-02T04:29:22.673Z,14.94
2017-07-02T04:29:51.277Z,14.93
2017-07-02T04:30:19.887Z,14.93
2017-07-02T04:30:48.414Z,14.97
2017-07-02T04:31:17.021Z,14.94
2017-07-02T04:31:45.612Z,14.94
2017-07-02T04:32:14.192Z,15.02
2017-07-02T04:32:42.809Z,14.96
2017-07-02T04:33:11.322Z,15.07
2017-07-02T04:33:39.837Z,14.96
2017-07-02T04:34:08.352Z,15.04
2017-07-02T04:34:36.874Z,14.96
2017-07-02T04:35:05.524Z,14.99
2017-07-02T04:35:34.104Z,15
2017-07-02T04:36:02.696Z,15.04
2017-07-02T04:36:31.314Z,15.02
2017-07-02T04:36:59.934Z,14.97
2017-07-02T04:37:28.448Z,14.94
2017-07-02T04:37:57.071Z,14.99
2017-07-02T04:38:25.899Z,15.02
2017-07-02T04:38:54.502Z,14.99
2017-07-02T04:39:23.108Z,14.99
2017-07-02T04:39:51.525Z,14.96
2017-07-02T04:40:20.028Z,15
2017-07-02T04:40:48.644Z,14.97
2017-07-02T04:41:17.274Z,15.07
2017-07-02T04:41:45.894Z,15.1
2017-07-02T04:42:14.413Z,15.1
2017-07-02T04:42:43.012Z,15.07
2017-07-02T04:43:11.621Z,15.05
2017-07-02T04:43:40.222Z,15.15
2017-07-02T04:44:08.829Z,15.07
2017-07-02T04:44:37.434Z,15.07
2017-07-02T04:45:06.019Z,15.1
2017-07-02T04:45:34.444Z,15.07
2017-07-02T04:46:02.958Z,15.07
2017-07-02T04:46:31.565Z,15.12
2017-07-02T04:47:00.424Z,15.07
2017-07-02T04:47:29.023Z,15.1
2017-07-02T04:47:57.517Z,15.11
2017-07-02T04:48:26.138Z,15.12
2017-07-02T04:48:54.655Z,15.15
2017-07-02T04:49:23.284Z,15.14
2017-07-02T04:49:51.871Z,15.15
2017-07-02T04:50:20.381Z,15.11
2017-07-02T04:50:48.975Z,15.18
2017-07-02T04:51:17.555Z,15.22
2017-07-02T04:51:46.070Z,15.15
2017-07-02T04:52:14.498Z,15.19
2017-07-02T04:52:43.117Z,15.18
2017-07-02T04:53:11.736Z,15.3
2017-07-02T04:53:40.339Z,15.3
2017-07-02T04:54:08.949Z,15.26
2017-07-02T04:54:37.559Z,15.29
2017-07-02T04:55:05.997Z,15.3
2017-07-02T04:55:34.591Z,15.26
2017-07-02T04:56:03.210Z,15.27
2017-07-02T04:56:31.790Z,15.33
2017-07-02T04:57:00.309Z,15.33
2017-07-02T04:57:28.925Z,15.22
2017-07-02T04:57:57.455Z,15.23
2017-07-02T04:58:25.999Z,15.19
2017-07-02T04:58:54.493Z,15.18
2017-07-02T04:59:23.077Z,15.22
2017-07-02T04:59:51.706Z,15.17
2017-07-02T05:00:20.310Z,15.23
2017-07-02T05:00:48.906Z,15.17
2017-07-02T05:01:17.422Z,15.18
2017-07-02T05:01:46.028Z,15.22
2017-07-02T05:02:14.540Z,15.22
2017-07-02T05:02:43.030Z,15.18
2017-07-02T05:03:11.559Z,15.25
2017-07-02T05:03:40.172Z,15.11
2017-07-02T05:04:08.779Z,15.14
2017-07-02T05:04:37.373Z,15.02
2017-07-02T05:05:05.969Z,15.15
2017-07-02T05:05:34.601Z,15.08
2017-07-02T05:06:03.195Z,15.15
2017-07-02T05:06:31.796Z,15.1
2017-07-02T05:07:00.406Z,15.15
2017-07-02T05:07:29.036Z,15.05
2017-07-02T05:07:57.658Z,15.1
2017-07-02T05:08:26.168Z,15.11
2017-07-02T05:08:54.792Z,15.11
2017-07-02T05:09:23.403Z,15.1
2017-07-02T05:09:51.907Z,15.1
2017-07-02T05:10:20.403Z,15.11
2017-07-02T05:10:49.016Z,15.1
2017-07-02T05:11:17.628Z,15.12
2017-07-02T05:11:46.259Z,15.11
2017-07-02T05:12:14.763Z,15.07
2017-07-02T05:12:43.383Z,15.12
2017-07-02T05:13:11.984Z,15.18
2017-07-02T05:13:40.618Z,15.12
2017-07-02T05:14:09.229Z,15.14
2017-07-02T05:14:37.848Z,15.04
2017-07-02T05:15:06.422Z,14.99
2017-07-02T05:15:35.031Z,15.04
2017-07-02T05:16:03.744Z,15.02
2017-07-02T05:16:32.437Z,14.96
2017-07-02T05:17:01.055Z,14.97
2017-07-02T05:17:29.673Z,14.93
2017-07-02T05:17:58.253Z,14.93
2017-07-02T05:18:26.877Z,14.92
2017-07-02T05:18:55.481Z,14.9
2017-07-02T05:19:24.113Z,14.89
2017-07-02T05:19:52.699Z,14.9
2017-07-02T05:20:21.113Z,14.89
2017-07-02T05:20:49.710Z,14.89
2017-07-02T05:21:18.302Z,14.89
2017-07-02T05:21:46.931Z,14.85
2017-07-02T05:22:15.458Z,14.86
2017-07-02T05:22:44.074Z,14.92
2017-07-02T05:23:12.685Z,14.94
2017-07-02T05:23:41.261Z,14.92
2017-07-02T05:24:09.894Z,14.92
2017-07-02T05:24:38.407Z,14.93
2017-07-02T05:25:07.014Z,14.94
2017-07-02T05:25:35.551Z,14.92
2017-07-02T05:26:04.170Z,14.96
2017-07-02T05:26:32.769Z,14.92
2017-07-02T05:27:01.396Z,14.87
2017-07-02T05:27:29.997Z,14.89
2017-07-02T05:27:58.637Z,14.87
2017-07-02T05:28:27.244Z,14.89
2017-07-02T05:28:55.773Z,14.77
2017-07-02T05:29:24.262Z,14.79
2017-07-02T05:29:52.850Z,14.82
2017-07-02T05:30:21.372Z,14.86
2017-07-02T05:30:50.005Z,14.85
2017-07-02T05:31:18.603Z,14.82
2017-07-02T05:31:47.225Z,14.86
2017-07-02T05:32:15.853Z,14.86
2017-07-02T05:32:44.352Z,14.82
2017-07-02T05:33:12.827Z,14.78
2017-07-02T05:33:41.338Z,14.87
2017-07-02T05:34:09.944Z,14.85
2017-07-02T05:34:38.449Z,14.85
2017-07-02T05:35:06.987Z,14.77
2017-07-02T05:35:35.585Z,14.81
2017-07-02T05:36:04.166Z,14.9
2017-07-02T05:36:32.736Z,14.86
2017-07-02T05:37:01.332Z,14.89
2017-07-02T05:37:29.854Z,14.89
2017-07-02T05:37:58.450Z,14.92
2017-07-02T05:38:27.055Z,14.92
2017-07-02T05:38:55.569Z,14.96
2017-07-02T05:39:24.169Z,14.96
2017-07-02T05:39:52.778Z,14.99
2017-07-02T05:40:26.072Z,14.92
2017-07-02T05:40:54.705Z,14.97
2017-07-02T05:41:23.229Z,14.96
2017-07-02T05:41:51.711Z,14.97
2017-07-02T05:42:20.303Z,15
2017-07-02T05:42:48.910Z,14.96
2017-07-02T05:43:17.495Z,15.02
2017-07-02T05:43:46.090Z,14.94
2017-07-02T05:44:14.714Z,14.97
2017-07-02T05:44:43.303Z,14.92
2017-07-02T05:45:11.826Z,14.9
2017-07-02T05:45:40.436Z,14.9
2017-07-02T05:46:09.030Z,14.92
2017-07-02T05:46:37.650Z,14.92
2017-07-02T05:47:06.264Z,14.87
2017-07-02T05:47:34.797Z,14.99
2017-07-02T05:48:03.321Z,14.93
2017-07-02T05:48:31.828Z,14.92
2017-07-02T05:49:00.428Z,14.96
2017-07-02T05:49:29.028Z,14.94
2017-07-02T05:49:57.644Z,14.87
2017-07-02T05:50:26.258Z,14.89
2017-07-02T05:50:54.877Z,14.89
2017-07-02T05:51:23.477Z,14.94
2017-07-02T05:51:52.080Z,14.94
2017-07-02T05:52:20.564Z,14.9
2017-07-02T05:52:49.081Z,14.94
2017-07-02T05:53:17.683Z,14.93
2017-07-02T05:53:46.196Z,14.89
2017-07-02T05:54:14.789Z,14.96
2017-07-02T05:54:43.388Z,15
2017-07-02T05:55:11.994Z,15.08
2017-07-02T05:55:40.535Z,14.96
2017-07-02T05:56:09.137Z,14.97
2017-07-02T05:56:37.739Z,14.97
2017-07-02T05:57:06.337Z,14.97
2017-07-02T05:57:34.937Z,15.1
2017-07-02T05:58:03.541Z,15.08
2017-07-02T05:58:32.147Z,15.05
2017-07-02T05:59:00.641Z,14.97
2017-07-02T05:59:29.257Z,14.97
2017-07-02T05:59:57.863Z,14.93
2017-07-02T06:00:26.382Z,14.93
2017-07-02T06:00:54.960Z,14.92
2017-07-02T06:01:23.603Z,14.96
2017-07-02T06:01:52.051Z,14.86
2017-07-02T06:02:20.571Z,14.85
2017-07-02T06:02:49.092Z,14.89
2017-07-02T06:03:17.597Z,14.92
2017-07-02T06:03:46.079Z,14.87
2017-07-02T06:04:14.651Z,14.89
2017-07-02T06:04:43.232Z,14.86
2017-07-02T06:05:11.840Z,14.86
2017-07-02T06:05:40.384Z,14.77
2017-07-02T06:06:08.992Z,14.73
2017-07-02T06:06:37.600Z,14.82
2017-07-02T06:07:06.191Z,14.79
2017-07-02T06:07:34.813Z,14.79
2017-07-02T06:08:03.411Z,14.79
2017-07-02T06:08:31.992Z,14.67
2017-07-02T06:09:00.630Z,14.68
2017-07-02T06:09:29.237Z,14.62
2017-07-02T06:09:57.834Z,14.7